createdAt,value
2018-06-20T00:02:15.078Z,21.20
2018-06-20T00:13:25.722Z,21.10
2018-06-20T00:15:53.569Z,21.10
2018-06-20T00:18:21.460Z,20.90
2018-06-20T00:20:49.229Z,21.00
2018-06-20T00:26:10.057Z,20.80
2018-06-20T00:28:37.834Z,20.90
2018-06-20T00:36:51.156Z,20.60
2018-06-20T00:39:18.928Z,20.50
2018-06-20T00:44:40.772Z,20.30
2018-06-20T00:47:24.322Z,20.30
2018-06-20T00:49:52.190Z,20.40
2018-06-20T00:52:20.007Z,20.30
2018-06-20T01:00:26.417Z,20.10
2018-06-20T01:08:42.749Z,20.00
2018-06-20T01:11:11.077Z,20.00
2018-06-20T01:19:23.977Z,20.00
2018-06-20T01:27:38.485Z,20.00
2018-06-20T01:35:28.424Z,20.10
2018-06-20T01:37:57.600Z,20.20
2018-06-20T01:40:25.435Z,20.10
2018-06-20T01:42:53.193Z,20.00
2018-06-20T01:45:21.111Z,20.00
2018-06-20T01:47:53.949Z,19.90
2018-06-20T01:50:26.256Z,19.90
2018-06-20T01:52:54.080Z,19.90
2018-06-20T01:55:21.979Z,19.80
2018-06-20T01:57:49.753Z,20.00
2018-06-20T02:02:45.306Z,19.90
2018-06-20T02:07:40.780Z,19.80
2018-06-20T02:10:08.596Z,19.60
2018-06-20T02:15:04.073Z,19.80
2018-06-20T02:17:31.944Z,19.70
2018-06-20T02:19:59.732Z,20.10
2018-06-20T02:22:27.524Z,19.80
2018-06-20T02:24:55.296Z,19.80
2018-06-20T02:27:23.102Z,19.70
2018-06-20T02:29:50.949Z,19.70
2018-06-20T02:32:18.732Z,19.70
2018-06-20T02:34:46.572Z,19.80
2018-06-20T02:37:14.454Z,19.80
2018-06-20T02:39:42.278Z,19.80
2018-06-20T02:42:10.048Z,19.70
2018-06-20T02:44:37.899Z,19.70
2018-06-20T02:49:33.748Z,19.40
2018-06-20T02:52:01.970Z,19.30
2018-06-20T02:54:30.016Z,19.30
2018-06-20T02:56:58.070Z,19.20
2018-06-20T02:59:25.877Z,19.10
2018-06-20T03:01:54.136Z,19.00
2018-06-20T03:04:21.922Z,18.90
2018-06-20T03:06:49.676Z,18.90
2018-06-20T03:09:24.800Z,18.90
2018-06-20T03:11:52.737Z,18.90
2018-06-20T03:14:20.539Z,19.00
2018-06-20T03:16:48.356Z,19.00
2018-06-20T03:21:43.958Z,18.80
2018-06-20T03:24:12.085Z,18.90
2018-06-20T03:26:39.921Z,18.80
2018-06-20T03:29:07.733Z,18.70
2018-06-20T03:31:35.665Z,18.70
2018-06-20T03:34:04.082Z,18.70
2018-06-20T03:36:32.355Z,18.70
2018-06-20T03:39:00.129Z,18.80
2018-06-20T03:41:28.053Z,18.80
2018-06-20T03:43:55.892Z,18.70
2018-06-20T03:46:23.854Z,18.70
2018-06-20T03:48:51.706Z,18.70
2018-06-20T03:51:19.487Z,18.80
2018-06-20T03:53:47.280Z,18.90
2018-06-20T03:58:42.752Z,18.70
2018-06-20T04:01:10.623Z,18.80
2018-06-20T04:03:38.429Z,18.70
2018-06-20T04:06:06.319Z,18.60
2018-06-20T04:08:34.493Z,18.80
2018-06-20T04:13:30.728Z,18.70
2018-06-20T04:15:58.534Z,18.70
2018-06-20T04:18:41.958Z,18.60
2018-06-20T04:21:11.380Z,18.80
2018-06-20T04:23:39.228Z,19.00
2018-06-20T04:26:08.018Z,18.90
2018-06-20T04:28:35.962Z,18.80
2018-06-20T04:33:33.033Z,18.90
2018-06-20T04:38:28.969Z,19.00
2018-06-20T04:43:25.209Z,18.70
2018-06-20T04:45:53.008Z,18.60
2018-06-20T04:48:20.821Z,18.70
2018-06-20T04:50:48.800Z,18.80
2018-06-20T04:53:17.324Z,18.80
2018-06-20T04:55:45.317Z,18.90
2018-06-20T04:58:13.633Z,19.10
2018-06-20T05:00:41.493Z,19.10
2018-06-20T05:03:09.253Z,19.30
2018-06-20T05:05:37.069Z,19.50
2018-06-20T05:08:05.147Z,19.50
2018-06-20T05:10:33.346Z,19.60
2018-06-20T05:13:01.142Z,19.60
2018-06-20T05:15:29.097Z,19.60
2018-06-20T05:17:56.872Z,19.80
2018-06-20T05:20:24.746Z,19.70
2018-06-20T05:22:52.493Z,19.70
2018-06-20T05:25:20.373Z,19.80
2018-06-20T05:30:15.880Z,19.90
2018-06-20T05:32:43.684Z,20.00
2018-06-20T05:35:11.421Z,20.00
2018-06-20T05:37:39.225Z,20.00
2018-06-20T05:40:07.109Z,20.00
2018-06-20T05:42:35.137Z,20.20
2018-06-20T05:45:03.563Z,20.20
2018-06-20T05:47:31.353Z,20.40
2018-06-20T05:49:59.210Z,20.40
2018-06-20T05:52:26.985Z,20.50
2018-06-20T05:54:54.927Z,20.60
2018-06-20T05:57:22.740Z,20.80
2018-06-20T05:59:50.547Z,20.90
2018-06-20T06:02:18.462Z,21.30
2018-06-20T06:04:46.465Z,21.50
2018-06-20T06:09:41.946Z,21.90
2018-06-20T06:12:09.702Z,22.10
2018-06-20T06:14:37.534Z,22.40
2018-06-20T06:17:05.659Z,22.60
2018-06-20T06:19:33.773Z,23.00
2018-06-20T06:22:01.581Z,23.40
2018-06-20T06:24:29.649Z,23.50
2018-06-20T06:26:57.608Z,23.70
2018-06-20T06:29:25.404Z,23.80
2018-06-20T06:31:53.278Z,24.10
2018-06-20T06:34:21.013Z,24.20
2018-06-20T06:36:48.745Z,24.60
2018-06-20T06:39:16.921Z,24.70
2018-06-20T06:41:44.730Z,24.80
2018-06-20T06:44:12.565Z,24.90
2018-06-20T06:46:40.428Z,25.10
2018-06-20T06:49:08.181Z,25.30
2018-06-20T06:54:04.103Z,25.80
2018-06-20T06:56:31.877Z,26.20
2018-06-20T06:58:59.709Z,26.40
2018-06-20T07:01:27.498Z,26.70
2018-06-20T07:03:55.408Z,27.30
2018-06-20T07:06:23.367Z,27.50
2018-06-20T07:08:51.165Z,27.70
2018-06-20T07:11:18.982Z,27.90
2018-06-20T07:13:46.779Z,28.10
2018-06-20T07:16:14.655Z,28.60
2018-06-20T07:18:42.441Z,28.80
2018-06-20T07:21:10.282Z,29.20
2018-06-20T07:23:38.085Z,29.50
2018-06-20T07:26:06.177Z,29.70
2018-06-20T07:28:34.247Z,30.10
2018-06-20T07:31:02.014Z,30.30
2018-06-20T07:33:29.841Z,30.40
2018-06-20T07:35:57.898Z,30.50
2018-06-20T07:38:25.561Z,30.70
2018-06-20T07:40:53.432Z,30.90
2018-06-20T07:43:21.196Z,31.10
2018-06-20T07:45:49.138Z,31.30
2018-06-20T07:48:17.015Z,31.50
2018-06-20T07:50:44.832Z,31.70
2018-06-20T07:53:12.601Z,31.80
2018-06-20T07:55:40.506Z,31.80
2018-06-20T07:58:09.130Z,32.20
2018-06-20T08:00:42.667Z,32.10
2018-06-20T08:03:17.687Z,32.00
2018-06-20T08:05:51.144Z,32.10
2018-06-20T08:09:22.612Z,32.20
2018-06-20T08:11:55.960Z,32.50
2018-06-20T08:14:29.418Z,32.50
2018-06-20T08:17:03.995Z,32.50
2018-06-20T08:19:37.323Z,32.40
2018-06-20T08:22:05.296Z,32.50
2018-06-20T08:24:33.252Z,32.60
2018-06-20T08:27:01.058Z,32.60
2018-06-20T08:29:29.081Z,32.70
2018-06-20T08:31:56.900Z,32.70
2018-06-20T08:48:50.450Z,32.90
2018-06-20T08:51:18.249Z,33.00
2018-06-20T08:53:46.049Z,33.20
2018-06-20T08:56:14.042Z,33.20
2018-06-20T08:58:41.886Z,33.50
2018-06-20T09:01:09.678Z,33.70
2018-06-20T09:03:38.061Z,33.80
2018-06-20T09:06:12.469Z,34.00
2018-06-20T09:11:18.929Z,34.10
2018-06-20T09:13:52.566Z,34.10
2018-06-20T09:16:25.889Z,34.20
2018-06-20T09:18:59.137Z,34.30
2018-06-20T09:21:26.918Z,34.40
2018-06-20T09:23:54.796Z,34.40
2018-06-20T09:26:22.741Z,34.50
2018-06-20T09:28:50.552Z,34.80
2018-06-20T09:31:18.370Z,34.80
2018-06-20T09:47:51.678Z,34.50
2018-06-20T09:50:24.932Z,34.60
2018-06-20T09:52:52.808Z,34.50
2018-06-20T09:55:20.721Z,34.40
2018-06-20T10:00:41.214Z,34.40
2018-06-20T10:03:14.801Z,34.40
2018-06-20T10:05:48.369Z,34.40
2018-06-20T10:08:21.805Z,34.60
2018-06-20T10:10:55.362Z,34.60
2018-06-20T10:13:25.435Z,34.70
2018-06-20T10:15:53.460Z,34.80
2018-06-20T10:18:21.781Z,34.60
2018-06-20T10:23:17.534Z,35.00
2018-06-20T10:25:45.374Z,35.10
2018-06-20T10:42:38.256Z,35.00
2018-06-20T10:45:11.604Z,34.90
2018-06-20T10:53:00.379Z,35.10
2018-06-20T10:55:28.181Z,35.00
2018-06-20T10:58:01.497Z,34.90
2018-06-20T11:03:08.147Z,34.90
2018-06-20T11:05:41.553Z,35.00
2018-06-20T11:08:14.989Z,35.00
2018-06-20T11:13:16.262Z,35.00
2018-06-20T11:15:44.980Z,35.20
2018-06-20T11:18:12.783Z,35.10
2018-06-20T11:20:46.089Z,35.10
2018-06-20T11:25:41.621Z,35.10
2018-06-20T11:28:12.392Z,35.10
2018-06-20T11:30:41.585Z,35.10
2018-06-20T11:33:09.362Z,35.30
2018-06-20T11:35:37.512Z,35.30
2018-06-20T11:38:05.514Z,35.40
2018-06-20T11:40:33.365Z,35.40
2018-06-20T11:43:01.774Z,35.30
2018-06-20T11:45:35.259Z,35.30
2018-06-20T11:48:03.214Z,35.30
2018-06-20T11:50:31.047Z,35.20
2018-06-20T11:55:36.859Z,35.00
2018-06-20T11:58:10.807Z,35.00
2018-06-20T12:00:44.223Z,35.10
2018-06-20T12:05:23.070Z,34.90
2018-06-20T12:13:03.516Z,34.50
2018-06-20T12:15:36.849Z,34.40
2018-06-20T12:20:43.361Z,34.10
2018-06-20T12:23:16.873Z,34.00
2018-06-20T12:25:50.349Z,33.90
2018-06-20T12:30:57.136Z,33.80
2018-06-20T12:33:30.577Z,33.60
2018-06-20T12:36:04.212Z,33.50
2018-06-20T12:38:37.801Z,33.40
2018-06-20T12:41:11.137Z,33.30
2018-06-20T12:43:44.509Z,33.20
2018-06-20T12:46:15.758Z,33.10
2018-06-20T12:48:43.537Z,33.00
2018-06-20T12:51:11.461Z,32.90
2018-06-20T12:53:39.257Z,32.90
2018-06-20T12:56:07.036Z,33.00
2018-06-20T12:58:34.824Z,32.90
2018-06-20T13:01:02.609Z,32.90
2018-06-20T13:03:30.617Z,32.90
2018-06-20T13:05:58.857Z,32.80
2018-06-20T13:08:26.816Z,32.70
2018-06-20T13:10:54.668Z,32.60
2018-06-20T13:13:22.529Z,32.60
2018-06-20T13:15:50.332Z,32.50
2018-06-20T13:18:18.129Z,32.50
2018-06-20T13:20:45.934Z,32.50
2018-06-20T13:23:13.700Z,32.50
2018-06-20T13:25:41.579Z,32.50
2018-06-20T13:28:09.404Z,32.50
2018-06-20T13:30:37.232Z,32.40
2018-06-20T13:33:10.646Z,32.40
2018-06-20T13:35:43.889Z,32.40
2018-06-20T13:52:36.232Z,32.60
2018-06-20T13:55:04.093Z,32.60
2018-06-20T13:57:32.000Z,32.60
2018-06-20T14:00:00.462Z,32.70
2018-06-20T14:02:28.836Z,32.80
2018-06-20T14:04:57.034Z,32.70
2018-06-20T14:07:24.878Z,32.70
2018-06-20T14:09:52.735Z,32.70
2018-06-20T14:12:21.242Z,32.70
2018-06-20T14:14:49.198Z,32.70
2018-06-20T14:17:17.217Z,32.70
2018-06-20T14:22:18.321Z,32.60
2018-06-20T14:24:46.192Z,32.60
2018-06-20T14:27:14.163Z,32.60
2018-06-20T14:29:42.837Z,32.70
2018-06-20T14:32:16.657Z,32.60
2018-06-20T14:37:23.441Z,32.60
2018-06-20T14:39:57.179Z,32.60
2018-06-20T14:45:04.277Z,32.50
2018-06-20T14:47:32.346Z,32.50
2018-06-20T14:50:01.515Z,32.50
2018-06-20T14:52:30.365Z,32.50
2018-06-20T14:54:58.504Z,32.60
2018-06-20T14:59:54.412Z,32.50
2018-06-20T15:02:22.382Z,32.50
2018-06-20T15:04:50.250Z,32.50
2018-06-20T15:07:18.317Z,32.60
2018-06-20T15:09:46.253Z,32.60
2018-06-20T15:12:14.145Z,32.60
2018-06-20T15:14:42.040Z,32.60
2018-06-20T15:17:15.345Z,32.60
2018-06-20T15:19:43.441Z,32.60
2018-06-20T15:22:11.493Z,32.60
2018-06-20T15:24:40.535Z,32.50
2018-06-20T15:27:14.990Z,32.50
2018-06-20T15:29:48.474Z,32.50
2018-06-20T15:32:21.908Z,32.50
2018-06-20T15:34:55.552Z,32.60
2018-06-20T15:39:56.895Z,32.60
2018-06-20T15:42:24.752Z,32.50
2018-06-20T15:44:52.535Z,32.40
2018-06-20T15:49:48.135Z,32.40
2018-06-20T15:52:16.184Z,32.30
2018-06-20T15:54:44.094Z,32.30
2018-06-20T15:57:12.809Z,32.30
2018-06-20T15:59:40.872Z,32.20
2018-06-20T16:02:08.841Z,32.20
2018-06-20T16:04:36.676Z,32.20
2018-06-20T16:07:04.573Z,32.20
2018-06-20T16:09:38.214Z,32.10
2018-06-20T16:12:06.725Z,32.10
2018-06-20T16:14:34.626Z,32.10
2018-06-20T16:19:36.786Z,31.90
2018-06-20T16:23:12.500Z,31.90
2018-06-20T16:28:19.425Z,31.80
2018-06-20T16:30:47.445Z,31.70
2018-06-20T16:33:15.213Z,31.70
2018-06-20T16:35:43.036Z,31.60
2018-06-20T16:38:10.859Z,31.70
2018-06-20T16:40:38.716Z,31.60
2018-06-20T16:43:06.508Z,31.50
2018-06-20T16:59:59.445Z,31.30
2018-06-20T17:02:32.793Z,31.30
2018-06-20T17:05:01.728Z,31.30
2018-06-20T17:09:58.366Z,31.20
2018-06-20T17:12:31.851Z,31.10
2018-06-20T17:15:05.381Z,31.10
2018-06-20T17:17:39.706Z,31.00
2018-06-20T17:20:13.102Z,30.90
2018-06-20T17:37:05.414Z,30.50
2018-06-20T17:39:33.616Z,30.50
2018-06-20T17:42:01.860Z,30.40
2018-06-20T17:44:30.148Z,30.40
2018-06-20T17:46:58.330Z,30.30
2018-06-20T18:06:36.393Z,29.90
2018-06-20T18:09:11.860Z,29.70
2018-06-20T18:11:45.356Z,29.80
2018-06-20T18:16:33.196Z,29.80
2018-06-20T18:19:01.089Z,29.70
2018-06-20T18:35:00.545Z,29.30
2018-06-20T18:37:28.385Z,29.20
2018-06-20T18:40:00.750Z,29.20
2018-06-20T18:42:28.531Z,29.10
2018-06-20T18:44:56.373Z,29.00
2018-06-20T18:47:29.929Z,29.00
2018-06-20T18:49:57.765Z,28.90
2018-06-20T18:54:53.321Z,28.80
2018-06-20T18:57:41.815Z,28.70
2018-06-20T19:13:33.072Z,28.30
2018-06-20T19:16:00.885Z,28.30
2018-06-20T19:18:28.949Z,28.20
2018-06-20T19:20:56.776Z,28.20
2018-06-20T19:23:24.629Z,28.10
2018-06-20T19:25:52.805Z,28.00
2018-06-20T19:30:48.353Z,27.80
2018-06-20T19:33:16.158Z,27.70
2018-06-20T19:35:43.929Z,27.60
2018-06-20T19:38:11.745Z,27.40
2018-06-20T19:40:39.497Z,27.30
2018-06-20T19:43:07.353Z,27.10
2018-06-20T19:45:35.208Z,27.00
2018-06-20T19:48:03.216Z,26.90
2018-06-20T19:50:31.385Z,26.70
2018-06-20T19:55:26.794Z,26.50
2018-06-20T19:57:54.594Z,26.40
2018-06-20T20:00:22.367Z,26.40
2018-06-20T20:02:50.182Z,26.30
2018-06-20T20:05:18.057Z,26.20
2018-06-20T20:07:46.065Z,26.10
2018-06-20T20:10:14.057Z,26.00
2018-06-20T20:12:41.837Z,25.90
2018-06-20T20:15:09.633Z,25.80
2018-06-20T20:17:37.452Z,25.80
2018-06-20T20:20:05.989Z,25.70
2018-06-20T20:22:33.997Z,25.60
2018-06-20T20:25:02.247Z,25.50
2018-06-20T20:27:30.088Z,25.40
2018-06-20T20:29:57.949Z,25.30
2018-06-20T20:32:25.765Z,25.30
2018-06-20T20:34:53.560Z,25.20
2018-06-20T20:37:21.409Z,25.20
2018-06-20T20:39:49.213Z,25.10
2018-06-20T20:42:16.996Z,25.10
2018-06-20T20:44:44.804Z,25.00
2018-06-20T20:47:12.556Z,25.00
2018-06-20T20:49:40.417Z,24.90
2018-06-20T20:52:08.381Z,24.90
2018-06-20T20:54:36.173Z,24.90
2018-06-20T20:57:04.119Z,24.90
2018-06-20T20:59:32.140Z,24.80
2018-06-20T21:02:43.994Z,24.80
2018-06-20T21:18:34.860Z,24.90
2018-06-20T21:21:02.754Z,24.80
2018-06-20T21:23:30.609Z,24.90
2018-06-20T21:25:58.462Z,24.80
2018-06-20T21:28:26.253Z,24.70
2018-06-20T21:30:54.069Z,24.60
2018-06-20T21:33:22.052Z,24.70
2018-06-20T21:35:49.865Z,24.50
2018-06-20T21:38:17.642Z,24.60
2018-06-20T21:40:45.427Z,24.50
2018-06-20T21:43:13.257Z,24.60
2018-06-20T21:45:41.089Z,24.50
2018-06-20T21:48:08.956Z,24.60
2018-06-20T21:50:36.906Z,24.40
2018-06-20T21:53:04.813Z,24.30
2018-06-20T21:55:32.713Z,24.30
2018-06-20T21:58:00.561Z,24.20
2018-06-20T22:00:29.781Z,24.40
2018-06-20T22:02:57.709Z,24.40
2018-06-20T22:05:25.566Z,24.50
2018-06-20T22:07:53.373Z,24.40
2018-06-20T22:10:21.442Z,24.20
2018-06-20T22:12:49.509Z,24.10
2018-06-20T22:15:17.342Z,24.10
2018-06-20T22:17:47.515Z,24.20
2018-06-20T22:20:16.341Z,24.10
2018-06-20T22:22:44.259Z,24.00
2018-06-20T22:25:12.768Z,23.90
2018-06-20T22:27:40.618Z,24.00
2018-06-20T22:30:08.469Z,23.90
2018-06-20T22:32:36.272Z,24.00
2018-06-20T22:35:04.411Z,24.10
2018-06-20T22:37:32.272Z,24.10
2018-06-20T22:40:00.112Z,24.00
2018-06-20T22:42:27.945Z,24.20
2018-06-20T22:44:55.781Z,24.30
2018-06-20T22:47:23.591Z,24.30
2018-06-20T22:52:19.030Z,24.00
2018-06-20T22:54:46.890Z,24.10
2018-06-20T22:57:14.708Z,24.20
2018-06-20T22:59:42.534Z,24.20
2018-06-20T23:02:10.329Z,24.10
2018-06-20T23:04:38.217Z,24.00
2018-06-20T23:07:06.158Z,24.00
2018-06-20T23:09:34.236Z,23.80
2018-06-20T23:12:02.253Z,23.90
2018-06-20T23:14:30.249Z,23.80
2018-06-20T23:16:58.101Z,23.80
2018-06-20T23:19:25.860Z,23.90
2018-06-20T23:21:53.721Z,23.80
2018-06-20T23:24:21.501Z,23.70
2018-06-20T23:26:49.284Z,23.60
2018-06-20T23:29:17.168Z,23.70
2018-06-20T23:31:44.981Z,23.70
2018-06-20T23:34:12.781Z,23.70
2018-06-20T23:36:40.582Z,23.70
2018-06-20T23:39:09.306Z,23.70
2018-06-20T23:41:37.529Z,23.60
2018-06-20T23:44:05.563Z,23.40
2018-06-20T23:46:33.381Z,23.50
2018-06-20T23:49:01.245Z,23.50
2018-06-20T23:51:29.047Z,23.40
2018-06-20T23:53:56.944Z,23.30
2018-06-20T23:56:24.812Z,23.30
2018-06-20T23:58:52.902Z,23.10
